createdAt,value
2019-03-26T00:01:38.791Z,32.77
2019-03-26T00:04:07.188Z,28.02
2019-03-26T00:06:38.439Z,26.17
2019-03-26T00:09:08.716Z,29.10
2019-03-26T00:11:37.561Z,36.63
2019-03-26T00:14:06.016Z,29.10
2019-03-26T00:16:38.342Z,25.17
2019-03-26T00:19:07.697Z,23.60
2019-03-26T00:21:36.224Z,25.02
2019-03-26T00:24:04.712Z,27.55
2019-03-26T00:26:37.007Z,28.10
2019-03-26T00:29:05.574Z,26.90
2019-03-26T00:31:34.015Z,25.35
2019-03-26T00:34:02.438Z,34.05
2019-03-26T00:36:30.843Z,24.20
2019-03-26T00:38:59.231Z,21.15
2019-03-26T00:41:27.729Z,22.90
2019-03-26T00:43:58.530Z,23.20
2019-03-26T00:46:29.686Z,16.00
2019-03-26T00:48:59.143Z,17.60
2019-03-26T00:51:27.591Z,28.05
2019-03-26T00:53:58.439Z,23.87
2019-03-26T00:56:26.833Z,21.50
2019-03-26T00:58:55.219Z,21.93
2019-03-26T01:01:24.680Z,20.52
2019-03-26T01:03:54.984Z,18.95
2019-03-26T01:06:24.237Z,22.45
2019-03-26T01:08:52.822Z,14.50
2019-03-26T01:11:22.221Z,19.17
2019-03-26T01:13:50.645Z,11.93
2019-03-26T01:16:23.226Z,17.82
2019-03-26T01:18:51.645Z,14.58
2019-03-26T01:21:20.149Z,18.27
2019-03-26T01:23:48.541Z,19.90
2019-03-26T01:26:16.921Z,16.60
2019-03-26T01:28:45.314Z,13.25
2019-03-26T01:31:17.119Z,13.38
2019-03-26T01:33:45.519Z,15.23
2019-03-26T01:36:18.043Z,17.52
2019-03-26T01:41:14.080Z,16.25
2019-03-26T01:43:42.521Z,19.52
2019-03-26T01:46:10.930Z,18.63
2019-03-26T01:48:40.426Z,13.08
2019-03-26T01:51:11.971Z,21.50
2019-03-26T01:53:40.379Z,19.90
2019-03-26T01:56:10.190Z,18.60
2019-03-26T01:58:38.545Z,23.12
2019-03-26T02:01:06.944Z,14.10
2019-03-26T02:03:37.838Z,19.23
2019-03-26T02:06:06.215Z,26.87
2019-03-26T02:08:34.603Z,21.20
2019-03-26T02:11:03.000Z,15.00
2019-03-26T02:13:31.492Z,18.48
2019-03-26T02:16:00.251Z,20.68
2019-03-26T02:18:32.247Z,19.45
2019-03-26T02:21:00.764Z,14.33
2019-03-26T02:23:32.004Z,20.92
2019-03-26T02:26:00.388Z,25.17
2019-03-26T02:28:28.783Z,18.50
2019-03-26T02:30:59.688Z,19.17
2019-03-26T02:33:28.075Z,20.68
2019-03-26T02:35:56.472Z,15.20
2019-03-26T02:38:24.876Z,24.60
2019-03-26T02:40:53.285Z,30.72
2019-03-26T02:43:21.691Z,29.20
2019-03-26T02:45:50.969Z,21.15
2019-03-26T02:48:19.891Z,26.05
2019-03-26T02:50:50.655Z,27.42
2019-03-26T02:53:22.160Z,24.92
2019-03-26T02:55:50.568Z,18.90
2019-03-26T02:58:20.187Z,23.15
2019-03-26T03:00:48.587Z,21.42
2019-03-26T03:03:16.984Z,28.20
2019-03-26T03:05:45.399Z,31.42
2019-03-26T03:08:13.783Z,33.28
2019-03-26T03:10:42.204Z,19.23
2019-03-26T03:13:10.594Z,20.92
2019-03-26T03:15:39.014Z,28.33
2019-03-26T03:18:11.433Z,26.87
2019-03-26T03:23:07.646Z,36.13
2019-03-26T03:25:36.109Z,19.20
2019-03-26T03:28:04.538Z,21.35
2019-03-26T03:30:35.416Z,26.65
2019-03-26T03:33:03.060Z,32.85
2019-03-26T03:35:31.518Z,25.60
2019-03-26T03:37:59.860Z,23.55
2019-03-26T03:40:32.250Z,35.73
2019-03-26T03:43:00.918Z,17.48
2019-03-26T03:45:30.368Z,28.45
2019-03-26T03:47:59.405Z,19.27
2019-03-26T03:50:30.303Z,24.70
2019-03-26T03:53:00.673Z,31.70
2019-03-26T03:55:30.563Z,27.02
2019-03-26T03:58:00.525Z,30.00
2019-03-26T04:00:37.990Z,26.75
2019-03-26T04:03:07.317Z,25.35
2019-03-26T04:05:36.385Z,21.25
2019-03-26T04:08:05.060Z,42.80
2019-03-26T04:10:34.432Z,25.27
2019-03-26T04:13:02.909Z,27.50
2019-03-26T04:15:34.837Z,34.20
2019-03-26T04:18:13.807Z,27.80
2019-03-26T04:20:38.375Z,28.30
2019-03-26T04:23:06.804Z,25.85
2019-03-26T04:25:35.222Z,33.70
2019-03-26T04:28:07.472Z,22.65
2019-03-26T04:30:37.906Z,23.07
2019-03-26T04:33:07.244Z,31.20
2019-03-26T04:35:35.787Z,27.62
2019-03-26T04:38:06.752Z,25.77
2019-03-26T04:40:37.845Z,19.55
2019-03-26T04:43:06.222Z,33.58
2019-03-26T04:45:34.601Z,22.75
2019-03-26T04:48:03.039Z,19.45
2019-03-26T04:50:31.421Z,25.27
2019-03-26T04:53:01.348Z,19.32
2019-03-26T04:55:32.497Z,26.10
2019-03-26T04:58:00.872Z,21.02
2019-03-26T05:00:29.247Z,20.17
2019-03-26T05:02:59.846Z,16.97
2019-03-26T05:05:30.681Z,19.20
2019-03-26T05:07:59.071Z,14.33
2019-03-26T05:10:27.485Z,14.75
2019-03-26T05:12:55.875Z,17.10
2019-03-26T05:15:26.209Z,14.07
2019-03-26T05:17:57.381Z,12.58
2019-03-26T05:20:25.772Z,19.62
2019-03-26T05:22:57.353Z,8.40
2019-03-26T05:25:25.742Z,17.53
2019-03-26T05:27:54.123Z,13.88
2019-03-26T05:30:28.590Z,14.43
2019-03-26T05:32:59.434Z,16.75
2019-03-26T05:35:27.844Z,13.43
2019-03-26T05:38:08.983Z,12.65
2019-03-26T05:40:38.737Z,16.53
2019-03-26T05:43:07.167Z,17.10
2019-03-26T05:45:35.550Z,17.07
2019-03-26T05:48:03.943Z,18.80
2019-03-26T05:50:32.326Z,13.33
2019-03-26T05:53:00.714Z,15.30
2019-03-26T05:55:31.668Z,18.32
2019-03-26T05:58:00.070Z,10.70
2019-03-26T06:00:32.955Z,15.98
2019-03-26T06:03:00.669Z,17.37
2019-03-26T06:05:31.618Z,10.65
2019-03-26T06:08:00.010Z,21.15
2019-03-26T06:10:28.397Z,8.67
2019-03-26T06:13:00.732Z,11.93
2019-03-26T06:15:32.632Z,10.20
2019-03-26T06:18:01.049Z,15.55
2019-03-26T06:20:32.083Z,9.63
2019-03-26T06:23:00.788Z,11.15
2019-03-26T06:25:30.906Z,17.35
2019-03-26T06:27:59.344Z,8.78
2019-03-26T06:30:43.354Z,17.70
2019-03-26T06:33:12.562Z,9.93
2019-03-26T06:35:40.970Z,13.35
2019-03-26T06:38:09.387Z,11.40
2019-03-26T06:40:37.793Z,10.72
2019-03-26T06:43:06.192Z,14.43
2019-03-26T06:45:34.593Z,12.82
2019-03-26T06:48:04.613Z,14.03
2019-03-26T06:50:33.219Z,15.70
2019-03-26T06:53:02.735Z,17.00
2019-03-26T06:55:31.121Z,10.23
2019-03-26T06:58:03.361Z,14.35
2019-03-26T07:00:35.216Z,22.80
2019-03-26T07:03:06.083Z,14.03
2019-03-26T07:05:35.546Z,15.07
2019-03-26T07:08:04.016Z,14.13
2019-03-26T07:10:32.844Z,17.13
2019-03-26T07:13:01.278Z,10.50
2019-03-26T07:15:29.736Z,13.45
2019-03-26T07:18:00.506Z,11.10
2019-03-26T07:20:42.301Z,13.32
2019-03-26T07:23:14.505Z,15.55
2019-03-26T07:28:10.591Z,18.00
2019-03-26T07:30:41.934Z,12.47
2019-03-26T07:33:10.844Z,16.07
2019-03-26T07:36:08.245Z,15.60
2019-03-26T07:38:36.659Z,18.85
2019-03-26T07:41:05.054Z,14.47
2019-03-26T07:43:33.440Z,12.47
2019-03-26T07:46:01.822Z,11.97
2019-03-26T07:48:34.010Z,23.10
2019-03-26T07:51:02.389Z,19.95
2019-03-26T07:53:30.781Z,20.10
2019-03-26T07:55:59.187Z,20.88
2019-03-26T07:58:27.587Z,16.07
2019-03-26T08:00:55.983Z,12.58
2019-03-26T08:03:24.367Z,16.30
2019-03-26T08:07:42.931Z,18.73
2019-03-26T08:10:15.119Z,15.15
2019-03-26T08:12:43.508Z,14.28
2019-03-26T08:15:15.033Z,15.32
2019-03-26T08:17:50.095Z,9.08
2019-03-26T08:20:19.237Z,13.80
2019-03-26T08:22:47.646Z,17.92
2019-03-26T08:25:17.032Z,17.73
2019-03-26T08:27:49.295Z,13.28
2019-03-26T08:30:17.711Z,14.83
2019-03-26T08:32:46.113Z,13.48
2019-03-26T08:35:14.502Z,14.68
2019-03-26T08:37:42.921Z,15.23
2019-03-26T08:40:18.583Z,11.48
2019-03-26T08:42:46.984Z,9.28
2019-03-26T08:45:18.642Z,10.03
2019-03-26T08:47:50.470Z,9.17
2019-03-26T08:52:48.959Z,12.07
2019-03-26T08:55:21.453Z,7.83
2019-03-26T09:00:18.819Z,8.23
2019-03-26T09:02:51.893Z,7.00
2019-03-26T09:05:23.612Z,9.18
2019-03-26T09:07:53.512Z,13.20
2019-03-26T09:10:24.593Z,12.82
2019-03-26T09:12:53.030Z,5.67
2019-03-26T09:15:22.360Z,9.80
2019-03-26T09:17:50.741Z,6.58
2019-03-26T09:20:19.721Z,8.58
2019-03-26T09:22:48.153Z,7.45
2019-03-26T09:25:16.571Z,9.00
2019-03-26T09:27:47.634Z,8.43
2019-03-26T09:30:19.188Z,9.50
2019-03-26T09:32:51.485Z,7.17
2019-03-26T09:35:19.852Z,9.15
2019-03-26T09:37:49.064Z,6.97
2019-03-26T09:40:18.802Z,9.88
2019-03-26T09:42:47.198Z,7.30
2019-03-26T09:45:16.671Z,7.83
2019-03-26T09:47:45.049Z,8.50
2019-03-26T09:50:13.676Z,6.15
2019-03-26T09:52:42.126Z,3.17
2019-03-26T09:55:10.879Z,4.87
2019-03-26T09:57:39.297Z,2.10
2019-03-26T10:00:11.297Z,9.20
2019-03-26T10:02:43.179Z,5.70
2019-03-26T10:05:13.871Z,8.43
2019-03-26T10:07:42.651Z,8.68
2019-03-26T10:10:11.647Z,9.33
2019-03-26T10:12:40.045Z,6.95
2019-03-26T10:15:09.072Z,5.50
2019-03-26T10:17:37.555Z,14.58
2019-03-26T10:20:07.940Z,7.30
2019-03-26T10:22:44.216Z,5.22
2019-03-26T10:25:14.592Z,11.83
2019-03-26T10:27:42.973Z,9.45
2019-03-26T10:30:16.242Z,8.13
2019-03-26T10:32:44.701Z,8.05
2019-03-26T10:35:15.791Z,9.75
2019-03-26T10:37:52.067Z,9.25
2019-03-26T10:40:32.951Z,8.68
2019-03-26T10:43:02.709Z,11.75
2019-03-26T10:45:34.912Z,8.40
2019-03-26T10:48:06.292Z,9.25
2019-03-26T10:50:35.980Z,4.40
2019-03-26T10:53:04.455Z,9.83
2019-03-26T10:55:32.847Z,10.50
2019-03-26T10:58:02.272Z,7.95
2019-03-26T11:00:30.655Z,7.62
2019-03-26T11:03:00.101Z,10.10
2019-03-26T11:05:30.987Z,11.22
2019-03-26T11:08:00.328Z,14.30
2019-03-26T19:21:29.666Z,3.42
2019-03-26T19:24:04.410Z,2.85
2019-03-26T19:26:30.806Z,8.30
2019-03-26T19:28:59.215Z,9.43
2019-03-26T19:31:35.190Z,7.22
2019-03-26T19:34:05.621Z,7.55
2019-03-26T19:36:34.038Z,3.45
2019-03-26T19:39:11.441Z,5.87
2019-03-26T19:41:35.020Z,4.95
2019-03-26T19:44:03.728Z,9.05
2019-03-26T19:46:32.118Z,9.55
2019-03-26T19:49:02.032Z,5.62
2019-03-26T19:51:34.237Z,8.05
2019-03-26T19:54:14.602Z,10.15
2019-03-26T19:56:43.862Z,11.15
2019-03-26T19:59:14.871Z,10.08
2019-03-26T20:01:43.265Z,8.73
2019-03-26T20:04:12.614Z,9.28
2019-03-26T20:06:40.997Z,5.80
2019-03-26T20:09:09.391Z,9.25
2019-03-26T20:11:37.795Z,5.97
2019-03-26T20:14:08.721Z,10.25
2019-03-26T20:16:41.995Z,10.18
2019-03-26T20:19:09.153Z,12.23
2019-03-26T20:21:37.678Z,10.23
2019-03-26T20:24:12.737Z,9.73
2019-03-26T20:26:42.048Z,11.48
2019-03-26T20:29:13.117Z,13.93
2019-03-26T20:31:42.025Z,10.63
2019-03-26T20:34:13.953Z,12.47
2019-03-26T20:36:42.443Z,11.40
2019-03-26T20:39:10.895Z,10.90
2019-03-26T20:41:39.300Z,9.68
2019-03-26T20:44:07.690Z,13.50
2019-03-26T20:46:38.893Z,10.78
2019-03-26T20:49:07.297Z,12.80
2019-03-26T20:51:38.368Z,14.75
2019-03-26T20:54:10.272Z,11.90
2019-03-26T20:56:40.763Z,18.07
2019-03-26T20:59:09.545Z,16.70
2019-03-26T21:01:45.516Z,18.00
2019-03-26T21:04:16.291Z,20.00
2019-03-26T21:06:44.103Z,30.25
2019-03-26T21:09:12.515Z,25.40
2019-03-26T21:11:43.484Z,20.85
2019-03-26T21:14:11.893Z,20.00
2019-03-26T21:16:40.303Z,21.35
2019-03-26T21:19:08.754Z,23.50
2019-03-26T21:21:37.098Z,22.60
2019-03-26T21:24:07.950Z,26.30
2019-03-26T21:26:38.923Z,25.95
2019-03-26T21:29:10.035Z,24.98
2019-03-26T21:31:42.205Z,27.52
2019-03-26T21:34:10.674Z,24.72
2019-03-26T21:36:45.202Z,26.15
2019-03-26T21:39:13.013Z,28.20
2019-03-26T21:41:41.448Z,29.67
2019-03-26T21:44:09.855Z,25.48
2019-03-26T21:46:38.248Z,23.87
2019-03-26T21:49:06.684Z,30.15
2019-03-26T21:51:39.270Z,21.57
2019-03-26T21:54:11.166Z,20.92
2019-03-26T21:56:39.555Z,19.55
2019-03-26T21:59:11.935Z,22.17
2019-03-26T22:01:45.766Z,26.12
2019-03-26T22:04:14.162Z,29.10
2019-03-26T22:06:42.613Z,20.60
2019-03-26T22:09:11.006Z,23.32
2019-03-26T22:11:52.235Z,23.18
2019-03-26T22:14:18.280Z,20.82
2019-03-26T22:16:45.841Z,26.20
2019-03-26T22:19:27.885Z,25.02
2019-03-26T22:21:49.171Z,21.57
2019-03-26T22:24:21.587Z,25.55
2019-03-26T22:26:50.006Z,32.42
2019-03-26T22:29:23.613Z,25.70
2019-03-26T22:31:54.463Z,31.07
2019-03-26T22:34:23.932Z,20.82
2019-03-26T22:36:56.176Z,16.87
2019-03-26T22:39:24.610Z,25.45
2019-03-26T22:41:52.997Z,23.13
2019-03-26T22:44:31.224Z,25.92
2019-03-26T22:46:53.418Z,23.77
2019-03-26T22:49:24.525Z,27.15
2019-03-26T22:51:52.927Z,19.80
2019-03-26T22:54:21.340Z,26.62
2019-03-26T22:56:52.166Z,21.60
2019-03-26T22:59:20.572Z,27.60
2019-03-26T23:01:49.129Z,31.23
2019-03-26T23:04:20.009Z,29.82
2019-03-26T23:06:47.657Z,24.15
2019-03-26T23:09:16.082Z,21.23
2019-03-26T23:11:44.450Z,19.77
2019-03-26T23:14:12.923Z,21.48
2019-03-26T23:16:41.340Z,21.95
2019-03-26T23:19:09.930Z,20.68
2019-03-26T23:21:38.374Z,27.15
2019-03-26T23:24:06.872Z,24.70
2019-03-26T23:26:35.277Z,24.50
2019-03-26T23:29:03.651Z,20.43
2019-03-26T23:31:32.046Z,20.08
2019-03-26T23:34:00.443Z,22.93
2019-03-26T23:36:32.674Z,21.45
2019-03-26T23:39:01.084Z,20.52
2019-03-26T23:41:29.480Z,19.92
2019-03-26T23:43:57.882Z,27.27
2019-03-26T23:46:26.307Z,19.52
2019-03-26T23:48:54.694Z,12.82
2019-03-26T23:51:23.102Z,20.60
2019-03-26T23:53:51.520Z,15.93
2019-03-26T23:56:21.036Z,21.35
2019-03-26T23:58:53.456Z,25.32
